Time;durP1;ratioP1;P1;durP2;ratioP2;P2;SDS_P1;SDS_P2;PMS_P1;PMS_P2;Temp;Humidity;BMP_temperature;BMP_pressure;BME280_temperature;BME280_humidity;BME280_pressure;Samples;Min_cycle;Max_cycle;Signal;HPM_P1;HPM_P2
2021/03/18 00:00:44;;;;;;;6.95;3.67;;;;;;;17.44;52.60;102957.38;6289268;22;20036;-80
2021/03/18 00:03:15;;;;;;;5.25;3.60;;;;;;;17.41;52.71;102958.16;6298710;22;20035;-78
2021/03/18 00:05:42;;;;;;;4.13;3.38;;;;;;;17.43;52.53;102960.81;6268108;22;20096;-79
2021/03/18 00:08:07;;;;;;;4.88;3.70;;;;;;;17.43;52.40;102955.63;6273182;22;20049;-80
2021/03/18 00:10:33;;;;;;;5.00;3.60;;;;;;;17.43;52.53;102956.50;6300202;22;19991;-79
2021/03/18 00:13:07;;;;;;;5.70;3.72;;;;;;;17.40;52.46;102948.63;6276205;22;20051;-79
2021/03/18 00:15:35;;;;;;;5.30;3.85;;;;;;;17.42;52.57;102946.03;6302676;22;19988;-79
2021/03/18 00:18:01;;;;;;;4.53;3.42;;;;;;;17.42;52.45;102933.03;6276338;22;20044;-79
2021/03/18 00:20:27;;;;;;;4.30;3.42;;;;;;;17.40;52.62;102932.13;6277257;22;20011;-79
2021/03/18 00:22:52;;;;;;;5.40;3.72;;;;;;;17.43;52.68;102937.41;6276438;22;20004;-79
2021/03/18 00:25:18;;;;;;;4.65;3.67;;;;;;;17.40;52.43;102921.72;6300515;22;19988;-79
2021/03/18 00:27:45;;;;;;;5.20;3.90;;;;;;;17.41;52.47;102913.94;6249398;22;19988;-79
2021/03/18 00:30:13;;;;;;;4.85;3.67;;;;;;;17.41;52.58;102915.66;6274021;22;20026;-80
2021/03/18 00:32:39;;;;;;;4.22;3.33;;;;;;;17.40;52.47;102924.31;6298725;22;20013;-79
2021/03/18 00:35:07;;;;;;;5.63;3.72;;;;;;;17.40;52.61;102927.81;6271130;22;20068;-79
2021/03/18 00:37:34;;;;;;;5.30;3.60;;;;;;;17.40;52.61;102935.59;6274223;22;20068;-80
2021/03/18 00:40:00;;;;;;;4.85;3.45;;;;;;;17.41;52.38;102931.28;6275537;22;19999;-79
2021/03/18 00:42:25;;;;;;;5.18;3.58;;;;;;;17.39;52.43;102920.81;6300171;22;20007;-79
2021/03/18 00:44:52;;;;;;;4.32;3.22;;;;;;;17.39;52.60;102910.41;6271732;22;20067;-80
2021/03/18 00:47:19;;;;;;;4.90;3.85;;;;;;;17.39;52.57;102913.00;6272041;22;20014;-80
2021/03/18 00:49:45;;;;;;;3.80;3.13;;;;;;;17.40;52.51;102929.53;6299940;22;20071;-79
2021/03/18 00:52:17;;;;;;;4.32;3.40;;;;;;;17.40;52.71;102919.13;6274742;22;19987;-80
2021/03/18 00:55:01;;;;;;;3.67;3.15;;;;;;;17.40;52.34;102925.19;6298742;22;19999;-79
2021/03/18 00:57:26;;;;;;;4.00;3.28;;;;;;;17.39;52.48;102928.63;6271128;22;20033;-79
2021/03/18 00:59:54;;;;;;;4.82;3.42;;;;;;;17.40;52.30;102937.34;6294135;22;20008;-79
2021/03/18 01:02:27;;;;;;;4.15;3.28;;;;;;;17.37;52.24;102921.63;6243786;22;20077;-79
2021/03/18 01:04:52;;;;;;;;;;;;;;;17.39;52.48;102930.34;6296883;22;20038;-79
2021/03/18 01:07:18;;;;;;;4.70;3.10;;;;;;;17.38;52.53;102926.00;6296356;22;19895;-79
2021/03/18 01:09:43;;;;;;;4.65;3.20;;;;;;;17.38;52.52;102923.41;6244265;22;20075;-79
2021/03/18 01:12:09;;;;;;;4.70;3.28;;;;;;;17.35;52.45;102924.19;6234154;23;20343;-80
2021/03/18 01:14:34;;;;;;;4.38;3.50;;;;;;;17.36;52.43;102922.50;6242210;22;20024;-79
2021/03/18 01:17:00;;;;;;;5.03;3.50;;;;;;;17.35;52.66;102926.78;6241662;23;20009;-79
2021/03/18 01:19:25;;;;;;;5.10;3.42;;;;;;;17.38;52.49;102933.81;6213904;23;20008;-79
2021/03/18 01:21:56;;;;;;;4.53;3.25;;;;;;;17.37;52.41;102934.63;6263762;23;20004;-78
2021/03/18 01:24:22;;;;;;;5.13;3.42;;;;;;;17.36;52.43;102927.69;6210428;22;20023;-80
2021/03/18 01:26:48;;;;;;;5.45;3.63;;;;;;;17.38;52.32;102931.22;6238409;23;20016;-79
2021/03/18 01:29:14;;;;;;;4.20;3.08;;;;;;;17.37;52.53;102930.31;6212323;23;20012;-79
2021/03/18 01:31:40;;;;;;;4.80;3.40;;;;;;;17.36;52.55;102918.16;6240223;23;20004;-78
2021/03/18 01:34:06;;;;;;;4.25;3.00;;;;;;;17.32;52.36;102921.53;6240184;23;20063;-79
2021/03/18 01:36:33;;;;;;;3.90;3.20;;;;;;;17.33;52.40;102912.84;6239762;23;20027;-79
2021/03/18 01:38:59;;;;;;;4.43;3.30;;;;;;;17.33;52.41;102918.06;6248134;22;20035;-79
2021/03/18 01:41:28;;;;;;;4.80;3.15;;;;;;;17.36;52.47;102918.16;6235380;23;20056;-79
2021/03/18 01:43:54;;;;;;;3.97;3.00;;;;;;;17.34;52.56;102898.16;6210622;23;20009;-79
2021/03/18 01:46:19;;;;;;;4.07;3.28;;;;;;;17.32;52.25;102894.63;6236778;23;20005;-79
2021/03/18 01:48:46;;;;;;;4.20;3.30;;;;;;;17.35;52.29;102886.88;6211070;23;20009;-79
2021/03/18 01:51:14;;;;;;;4.35;3.03;;;;;;;17.33;52.21;102889.44;6236812;23;20066;-79
2021/03/18 01:53:41;;;;;;;4.35;3.15;;;;;;;17.32;52.54;102873.81;6235842;23;20064;-79
2021/03/18 01:56:07;;;;;;;4.45;3.28;;;;;;;17.32;52.53;102866.00;6237653;23;20011;-79
2021/03/18 01:58:33;;;;;;;4.15;2.83;;;;;;;17.31;52.33;102862.53;6237609;23;20004;-79
2021/03/18 02:01:06;;;;;;;4.75;3.20;;;;;;;17.34;52.32;102879.94;6239073;23;19993;-79
2021/03/18 02:03:31;;;;;;;3.92;3.00;;;;;;;17.31;52.32;102875.53;6239767;23;20023;-78
2021/03/18 02:05:57;;;;;;;4.25;3.05;;;;;;;17.30;52.47;102862.47;6239407;22;20013;-79
2021/03/18 02:08:23;;;;;;;4.68;3.17;;;;;;;17.33;52.28;102883.34;6250125;22;20030;-80
2021/03/18 02:10:51;;;;;;;4.25;2.88;;;;;;;17.32;52.49;102886.81;6245545;23;20025;-80
2021/03/18 02:13:17;;;;;;;5.43;3.45;;;;;;;17.31;52.62;102887.66;6244781;23;20068;-80
2021/03/18 02:15:47;;;;;;;4.38;2.80;;;;;;;17.32;52.45;102884.22;6252262;22;20017;-79
2021/03/18 02:18:16;;;;;;;4.25;3.05;;;;;;;17.31;52.35;102874.63;6247504;22;20019;-79
2021/03/18 02:21:02;;;;;;;5.15;3.20;;;;;;;17.30;52.32;102865.06;6270981;22;20026;-79
2021/03/18 02:23:31;;;;;;;4.32;3.20;;;;;;;17.30;52.42;102858.16;6270147;23;20019;-80
2021/03/18 02:26:34;;;;;;;3.42;2.72;;;;;;;17.31;52.49;102859.00;6270570;23;20000;-79
2021/03/18 02:29:21;;;;;;;4.38;3.13;;;;;;;17.30;52.36;102858.16;6269639;23;19992;-80
2021/03/18 02:31:58;;;;;;;3.97;2.75;;;;;;;17.29;52.39;102851.19;6269211;23;20011;-79
2021/03/18 02:34:26;;;;;;;4.97;2.85;;;;;;;17.30;52.38;102841.66;6269426;23;20000;-80
2021/03/18 02:36:59;;;;;;;4.15;2.88;;;;;;;17.30;52.40;102834.72;6270352;23;20007;-80
2021/03/18 02:39:31;;;;;;;4.18;2.72;;;;;;;17.27;52.51;102830.34;6266445;23;20012;-79
2021/03/18 02:42:02;;;;;;;4.53;2.90;;;;;;;17.27;52.11;102826.84;6267566;23;20023;-79
2021/03/18 02:44:29;;;;;;;4.57;3.22;;;;;;;17.28;52.25;102829.47;6269386;23;20239;-80
2021/03/18 02:47:08;;;;;;;5.20;2.90;;;;;;;17.26;52.54;102833.75;6267960;23;20004;-80
2021/03/18 02:49:37;;;;;;;4.22;2.67;;;;;;;17.26;52.41;102833.75;6259394;23;20008;-80
2021/03/18 02:52:06;;;;;;;4.28;2.80;;;;;;;17.27;52.60;102826.84;6263353;23;20035;-79
2021/03/18 02:57:09;;;;;;;4.72;3.17;;;;;;;17.27;52.44;102827.72;6232452;23;20030;-79
2021/03/18 02:59:38;;;;;;;4.47;3.25;;;;;;;17.27;52.58;102819.06;6209517;23;20408;-80
2021/03/18 03:02:06;;;;;;;3.58;2.83;;;;;;;17.25;52.24;102819.00;6232768;23;20009;-79
2021/03/18 03:04:35;;;;;;;3.60;2.70;;;;;;;17.24;52.25;102822.44;6229690;23;20124;-79
2021/03/18 03:07:01;;;;;;;5.88;3.03;;;;;;;17.25;52.24;102818.13;6230566;23;20005;-79
2021/03/18 03:09:34;;;;;;;4.38;2.85;;;;;;;17.25;52.43;102820.75;6229090;23;20008;-79
2021/03/18 03:12:02;;;;;;;4.43;2.80;;;;;;;17.25;52.33;102818.13;6204634;23;20096;-80
2021/03/18 03:14:30;;;;;;;5.20;2.90;;;;;;;17.23;52.27;102818.09;6232196;23;20027;-79
2021/03/18 03:16:56;;;;;;;4.50;2.88;;;;;;;17.22;52.33;102816.34;6238692;23;20001;-80
2021/03/18 03:19:23;;;;;;;4.05;3.00;;;;;;;17.24;52.51;102813.75;6260335;22;20019;-79
2021/03/18 03:21:49;;;;;;;4.43;2.70;;;;;;;17.24;52.38;102813.75;6274650;22;20003;-79
2021/03/18 03:24:15;;;;;;;5.45;3.17;;;;;;;17.22;52.25;102808.53;6274711;22;20010;-79
2021/03/18 03:26:41;;;;;;;4.45;2.72;;;;;;;17.24;52.38;102811.16;6249686;22;20015;-77
2021/03/18 03:29:08;;;;;;;3.45;2.53;;;;;;;17.23;52.33;102815.50;6250356;22;20038;-77
2021/03/18 03:31:34;;;;;;;4.55;2.70;;;;;;;17.22;52.30;102812.84;6274654;22;20080;-78
2021/03/18 03:34:10;;;;;;;4.85;2.92;;;;;;;17.21;52.39;102826.72;6274425;22;20010;-78
2021/03/18 03:36:36;;;;;;;4.65;2.85;;;;;;;17.20;52.43;102822.34;6268587;22;20004;-77
2021/03/18 03:39:06;;;;;;;4.10;2.85;;;;;;;17.21;52.26;102816.31;6243363;23;20035;-79
2021/03/18 03:41:32;;;;;;;3.67;2.45;;;;;;;17.22;52.32;102820.66;6244253;23;20072;-78
2021/03/18 03:43:57;;;;;;;3.53;2.45;;;;;;;17.18;52.41;102817.13;6242229;23;20008;-78
2021/03/18 03:46:23;;;;;;;4.22;2.55;;;;;;;17.19;52.28;102816.25;6267585;22;20004;-80
2021/03/18 03:48:48;;;;;;;3.80;2.60;;;;;;;17.18;52.22;102813.59;6217886;23;20019;-79
2021/03/18 03:51:14;;;;;;;4.45;2.72;;;;;;;17.19;52.36;102816.25;6243537;23;20000;-79
2021/03/18 03:53:53;;;;;;;4.60;2.90;;;;;;;17.20;52.20;102812.84;6269869;23;20324;-78
2021/03/18 03:56:32;;;;;;;4.68;2.70;;;;;;;17.19;52.36;102808.44;6231086;23;20028;-78
2021/03/18 03:59:05;;;;;;;3.85;2.47;;;;;;;17.17;52.38;102797.13;6183380;23;20024;-78
2021/03/18 04:02:02;;;;;;;3.95;2.67;;;;;;;17.17;52.48;102788.44;6183003;23;20031;-78
2021/03/18 04:04:51;;;;;;;4.40;2.90;;;;;;;17.17;52.34;102771.13;6169928;23;20009;-79
2021/03/18 04:07:37;;;;;;;4.20;2.47;;;;;;;17.16;52.35;102773.66;6183136;23;20012;-79
2021/03/18 04:10:04;;;;;;;4.05;2.47;;;;;;;17.15;52.14;102774.53;6225609;22;20082;-79
2021/03/18 04:12:40;;;;;;;5.47;2.42;;;;;;;17.17;52.33;102778.91;6243228;23;20000;-79
2021/03/18 04:15:08;;;;;;;4.50;2.65;;;;;;;17.14;52.60;102762.38;6243406;23;20004;-79
2021/03/18 04:17:37;;;;;;;4.70;2.92;;;;;;;17.17;52.19;102768.50;6217053;23;20000;-78
2021/03/18 04:20:08;;;;;;;3.75;2.60;;;;;;;17.18;52.33;102769.38;6253088;22;20024;-79
2021/03/18 04:22:36;;;;;;;3.30;2.25;;;;;;;17.16;52.38;102771.97;6239147;23;19998;-80
2021/03/18 04:25:04;;;;;;;3.70;2.58;;;;;;;17.16;52.29;102776.28;6213840;23;20004;-79
2021/03/18 04:27:30;;;;;;;4.72;2.78;;;;;;;17.16;52.40;102776.28;6238730;23;20012;-78
2021/03/18 04:29:58;;;;;;;4.10;2.58;;;;;;;17.14;52.15;102776.25;6213600;23;20000;-79
2021/03/18 04:32:24;;;;;;;3.50;2.60;;;;;;;17.13;52.06;102777.09;6238339;23;20011;-78
2021/03/18 04:34:52;;;;;;;5.93;2.58;;;;;;;17.12;52.45;102762.34;6238213;23;20064;-79
2021/03/18 04:37:19;;;;;;;4.15;2.53;;;;;;;17.15;52.23;102777.13;6236044;23;20011;-78
2021/03/18 04:39:47;;;;;;;4.30;2.47;;;;;;;17.15;52.37;102775.41;6235530;23;20009;-79
2021/03/18 04:42:15;;;;;;;3.15;2.15;;;;;;;17.15;52.15;102774.53;6209975;23;20009;-78
2021/03/18 04:44:42;;;;;;;4.03;2.40;;;;;;;17.13;52.13;102764.06;6210692;23;20097;-77
2021/03/18 04:47:13;;;;;;;3.63;2.40;;;;;;;17.12;52.51;102756.25;6278503;22;20054;-79
2021/03/18 04:49:42;;;;;;;4.07;2.70;;;;;;;17.11;52.27;102749.28;6268156;22;20008;-79
2021/03/18 04:52:07;;;;;;;3.80;2.60;;;;;;;17.13;52.37;102753.66;6269664;22;20342;-79
2021/03/18 04:54:35;;;;;;;4.53;2.65;;;;;;;17.12;52.38;102745.84;6271078;22;20003;-79
2021/03/18 04:57:01;;;;;;;4.05;2.38;;;;;;;17.12;52.29;102744.13;6295847;22;20016;-79
2021/03/18 04:59:28;;;;;;;3.53;2.58;;;;;;;17.11;52.13;102741.47;6268654;22;20087;-79
2021/03/18 05:01:56;;;;;;;4.68;2.47;;;;;;;17.11;52.38;102751.88;6221812;22;20010;-79
2021/03/18 05:04:22;;;;;;;3.92;2.53;;;;;;;17.12;52.39;102758.88;6273043;22;20000;-80
2021/03/18 05:06:51;;;;;;;4.00;2.70;;;;;;;17.11;52.33;102768.38;6227291;22;20027;-78
2021/03/18 05:09:18;;;;;;;3.55;2.30;;;;;;;17.10;52.24;102752.75;6180154;23;20013;-79
2021/03/18 05:11:44;;;;;;;3.65;2.50;;;;;;;17.11;52.10;102749.28;6180737;23;20001;-79
2021/03/18 05:14:10;;;;;;;3.92;2.17;;;;;;;17.11;52.30;102757.97;6179719;23;20011;-79
2021/03/18 05:16:37;;;;;;;3.25;2.20;;;;;;;17.12;52.17;102764.06;6179531;23;20011;-80
2021/03/18 05:19:13;;;;;;;3.80;2.42;;;;;;;17.09;52.35;102759.66;6206616;23;20056;-79
2021/03/18 05:21:43;;;;;;;3.45;2.40;;;;;;;17.08;52.16;102752.69;6175509;23;20174;-79
2021/03/18 05:24:11;;;;;;;4.20;2.35;;;;;;;17.08;52.29;102752.69;6181505;23;20005;-79
2021/03/18 05:26:38;;;;;;;3.67;2.28;;;;;;;17.08;52.27;102757.91;6204667;23;20005;-79
2021/03/18 05:29:05;;;;;;;3.55;2.15;;;;;;;17.11;52.21;102777.91;6182111;23;20023;-79
2021/03/18 05:31:30;;;;;;;3.47;2.30;;;;;;;17.11;52.27;102770.09;6183256;23;20028;-79
2021/03/18 05:33:56;;;;;;;3.80;2.10;;;;;;;17.08;52.35;102757.91;6182239;23;20024;-79
2021/03/18 05:36:22;;;;;;;4.72;2.35;;;;;;;17.09;52.37;102753.56;6181571;23;20028;-79
2021/03/18 05:38:49;;;;;;;4.07;2.40;;;;;;;17.09;52.35;102761.38;6130795;23;20021;-79
2021/03/18 05:41:17;;;;;;;4.57;2.20;;;;;;;17.10;52.44;102761.41;6205431;23;20028;-79
2021/03/18 05:43:44;;;;;;;3.55;2.20;;;;;;;17.09;52.48;102746.63;6155943;23;20009;-79
2021/03/18 05:46:13;;;;;;;3.20;2.28;;;;;;;17.09;52.46;102745.75;6183073;23;20356;-79
2021/03/18 05:48:40;;;;;;;3.35;2.00;;;;;;;17.11;52.58;102749.28;6210443;23;19998;-79
2021/03/18 05:51:13;;;;;;;3.33;2.30;;;;;;;17.11;52.37;102750.16;6161018;23;20035;-78
2021/03/18 05:53:40;;;;;;;2.80;2.03;;;;;;;17.11;52.35;102749.28;6186083;23;20041;-79
2021/03/18 05:56:06;;;;;;;2.97;1.98;;;;;;;17.12;52.54;102738.06;6199062;22;20287;-78
2021/03/18 05:58:33;;;;;;;2.95;2.05;;;;;;;17.10;52.28;102732.81;6191204;23;20032;-78
2021/03/18 06:03:46;;;;;;;3.45;2.03;;;;;;;17.11;52.57;102741.47;6296532;22;20023;-78
2021/03/18 06:06:13;;;;;;;3.00;2.00;;;;;;;17.09;52.44;102733.63;6250750;22;20085;-79
2021/03/18 06:08:39;;;;;;;4.03;2.47;;;;;;;17.14;52.49;102741.56;6275661;22;20004;-79
2021/03/18 06:11:07;;;;;;;4.05;1.92;;;;;;;17.14;52.50;102726.84;6276712;22;20034;-78
2021/03/18 06:13:36;;;;;;;2.90;1.92;;;;;;;17.11;52.38;102718.06;6276030;22;19996;-79
2021/03/18 06:16:02;;;;;;;2.90;2.00;;;;;;;17.11;52.53;102718.94;6250809;22;20011;-78
2021/03/18 06:18:28;;;;;;;3.28;2.10;;;;;;;17.15;52.45;102714.69;6273574;22;20274;-79
2021/03/18 06:20:55;;;;;;;3.53;1.83;;;;;;;17.14;52.50;102711.22;6275440;22;20003;-79
2021/03/18 06:23:22;;;;;;;2.63;1.90;;;;;;;17.16;52.43;102706.03;6275112;22;19987;-79
2021/03/18 06:25:49;;;;;;;2.65;1.83;;;;;;;17.13;52.48;102700.78;6275987;22;20090;-78
2021/03/18 06:28:30;;;;;;;3.35;1.90;;;;;;;17.16;52.37;102695.63;6275200;22;20087;-77
2021/03/18 06:31:00;;;;;;;3.08;2.10;;;;;;;17.16;52.49;102704.34;6275513;22;20075;-80
2021/03/18 06:33:28;;;;;;;3.03;1.80;;;;;;;17.17;52.27;102707.81;6274149;22;19999;-79
2021/03/18 06:35:55;;;;;;;3.30;1.98;;;;;;;17.16;52.26;102712.13;6274209;22;20075;-79
2021/03/18 06:38:32;;;;;;;2.88;1.95;;;;;;;17.16;52.39;102714.75;6274901;22;20007;-79
2021/03/18 06:41:01;;;;;;;10.43;2.83;;;;;;;17.28;51.97;102706.31;6272746;22;20071;-79
2021/03/18 06:44:05;;;;;;;6.50;2.70;;;;;;;17.43;51.71;102698.81;6271152;22;20010;-78
2021/03/18 06:46:40;;;;;;;15.93;2.90;;;;;;;17.46;51.66;102684.97;6294164;22;20028;-79
2021/03/18 06:49:15;;;;;;;6.57;2.67;;;;;;;17.50;51.99;102688.53;6245288;22;20046;-79
2021/03/18 06:54:33;;;;;;;6.80;3.08;;;;;;;17.57;52.17;102691.31;6297657;22;20014;-78
2021/03/18 06:57:02;;;;;;;11.13;3.10;;;;;;;17.57;52.02;102677.41;6271369;22;20023;-78
2021/03/18 06:59:46;;;;;;;10.50;2.95;;;;;;;17.60;52.14;102677.47;6256325;22;20025;-78
2021/03/18 07:02:16;;;;;;;7.72;3.15;;;;;;;17.59;52.17;102678.31;6207477;23;20391;-78
2021/03/18 07:04:47;;;;;;;6.70;2.85;;;;;;;17.64;52.21;102681.91;6233819;23;20024;-78
2021/03/18 07:09:40;;;;;;;6.15;2.90;;;;;;;17.66;52.04;102682.81;6300689;22;20023;-79
2021/03/18 07:12:08;;;;;;;6.25;2.80;;;;;;;17.67;52.13;102690.63;6250591;22;20004;-79
2021/03/18 07:14:58;;;;;;;6.63;2.58;;;;;;;17.69;52.13;102693.25;6276446;22;19992;-78
2021/03/18 07:17:35;;;;;;;7.05;2.80;;;;;;;17.70;52.07;102695.00;6239358;23;20060;-79
2021/03/18 07:20:27;;;;;;;5.78;2.38;;;;;;;17.71;52.26;102691.56;6238593;23;20009;-79
2021/03/18 07:22:58;;;;;;;4.72;2.38;;;;;;;17.70;52.38;102684.59;6213510;23;20004;-79
2021/03/18 07:25:26;;;;;;;4.68;2.47;;;;;;;17.73;52.28;102695.09;6258277;22;20032;-78
2021/03/18 07:27:55;;;;;;;5.72;2.60;;;;;;;17.73;52.09;102694.22;6261000;22;20031;-79
2021/03/18 07:30:27;;;;;;;5.47;2.42;;;;;;;17.76;52.21;102710.75;6236273;23;20011;-79
2021/03/18 07:33:04;;;;;;;4.82;2.28;;;;;;;17.74;52.14;102707.25;6236936;23;20004;-79
2021/03/18 07:38:04;;;;;;;4.57;2.13;;;;;;;17.75;52.19;102692.53;6264033;22;20016;-77
2021/03/18 07:40:29;;;;;;;5.72;2.38;;;;;;;17.74;52.28;102688.16;6215625;23;20016;-77
2021/03/18 07:42:56;;;;;;;8.15;2.42;;;;;;;17.83;52.43;102685.75;6243205;23;20051;-78
2021/03/18 07:45:24;;;;;;;7.32;2.25;;;;;;;17.87;52.52;102677.13;6242211;23;20011;-78
2021/03/18 07:47:50;;;;;;;12.88;2.47;;;;;;;17.89;52.35;102676.31;6262726;23;20339;-78
2021/03/18 07:50:19;;;;;;;6.70;2.28;;;;;;;17.94;52.53;102676.41;6235928;23;20011;-78
2021/03/18 07:52:51;;;;;;;5.20;2.33;;;;;;;17.93;52.49;102664.22;6237400;23;20012;-78
2021/03/18 07:55:21;;;;;;;5.97;2.28;;;;;;;17.96;52.14;102663.41;6253983;23;20004;-80
2021/03/18 07:57:51;;;;;;;8.35;2.40;;;;;;;17.96;52.15;102669.50;6233755;23;20012;-78
2021/03/18 08:00:36;;;;;;;4.40;1.98;;;;;;;17.98;52.03;102672.13;6260165;23;20012;-78
2021/03/18 08:03:27;;;;;;;6.95;2.13;;;;;;;17.98;52.32;102677.34;6245958;22;20032;-78
2021/03/18 08:05:55;;;;;;;5.88;2.35;;;;;;;18.01;52.09;102675.69;6232370;23;20004;-80
2021/03/18 08:08:40;;;;;;;5.95;2.03;;;;;;;17.98;52.12;102677.34;6227164;23;20017;-78
2021/03/18 08:11:12;;;;;;;5.10;2.17;;;;;;;17.98;52.11;102678.22;6233326;23;20080;-78
2021/03/18 08:13:42;;;;;;;4.20;2.00;;;;;;;17.98;52.12;102685.16;6232104;23;20339;-78
2021/03/18 08:16:28;;;;;;;3.72;1.90;;;;;;;17.98;52.07;102682.53;6233666;23;20436;-78
2021/03/18 08:19:01;;;;;;;3.72;1.95;;;;;;;17.98;52.25;102690.38;6233325;23;20032;-79
2021/03/18 08:21:38;;;;;;;;;;;;;;;17.99;52.32;102679.13;6237717;23;20005;-79
2021/03/18 08:24:12;;;;;;;4.72;2.20;;;;;;;17.96;52.06;102673.81;6279811;22;19922;-79
2021/03/18 08:27:08;;;;;;;3.90;1.98;;;;;;;17.97;52.33;102681.69;6247532;22;20000;-78
2021/03/18 08:29:57;;;;;;;3.80;1.83;;;;;;;17.94;52.22;102676.41;6236997;23;20004;-79
2021/03/18 08:32:30;;;;;;;4.28;1.90;;;;;;;17.95;52.39;102677.28;6212951;23;19993;-79
2021/03/18 08:35:11;;;;;;;3.55;1.88;;;;;;;17.94;52.54;102686.81;6237491;23;20005;-79
2021/03/18 08:37:43;;;;;;;3.22;1.75;;;;;;;17.92;52.45;102679.81;6238450;23;20009;-80
2021/03/18 08:43:11;;;;;;;4.97;1.73;;;;;;;17.94;52.28;102671.19;6240024;23;20072;-79
2021/03/18 08:45:44;;;;;;;3.95;1.83;;;;;;;17.97;52.43;102665.19;6213762;23;20004;-79
2021/03/18 08:48:32;;;;;;;3.22;1.70;;;;;;;17.96;52.26;102669.50;6213824;23;20012;-79
2021/03/18 08:51:03;;;;;;;2.55;1.60;;;;;;;17.95;52.30;102667.75;6216034;22;20024;-79
2021/03/18 08:53:33;;;;;;;3.05;1.70;;;;;;;17.99;52.31;102663.47;6239009;22;19992;-79
2021/03/18 08:56:01;;;;;;;2.72;1.50;;;;;;;17.97;52.18;102667.78;6239696;23;20076;-79
2021/03/18 08:58:50;;;;;;;2.85;1.40;;;;;;;17.93;52.45;102664.22;6212017;23;20016;-79
2021/03/18 09:01:17;;;;;;;3.55;1.50;;;;;;;17.96;52.49;102661.66;6239456;23;20005;-78
2021/03/18 09:03:46;;;;;;;5.22;1.70;;;;;;;17.97;52.02;102666.06;6215623;23;20012;-79
2021/03/18 09:06:18;;;;;;;2.38;1.30;;;;;;;17.94;52.33;102662.50;6240420;22;20009;-78
2021/03/18 09:08:49;;;;;;;2.35;1.50;;;;;;;17.98;52.35;102672.13;6240305;23;20009;-79
2021/03/18 09:11:44;;;;;;;2.03;1.25;;;;;;;17.95;52.19;102670.34;6218556;23;20008;-79
2021/03/18 09:14:30;;;;;;;2.38;1.40;;;;;;;17.99;52.35;102676.50;6220820;23;20083;-79
2021/03/18 09:17:07;;;;;;;2.25;1.15;;;;;;;18.00;52.33;102680.84;6244539;23;20008;-79
2021/03/18 09:19:38;;;;;;;2.55;1.40;;;;;;;18.01;52.21;102678.28;6224470;23;19992;-80
2021/03/18 09:22:06;;;;;;;2.80;1.70;;;;;;;18.02;52.17;102681.75;6246840;23;19992;-79
2021/03/18 09:24:39;;;;;;;2.33;1.45;;;;;;;18.03;52.31;102678.28;6249188;23;20008;-78
2021/03/18 09:27:05;;;;;;;5.35;1.50;;;;;;;18.05;52.32;102672.28;6248020;23;20065;-79
2021/03/18 09:29:31;;;;;;;3.33;1.45;;;;;;;18.08;52.17;102666.25;6247871;23;20012;-79
2021/03/18 09:32:07;;;;;;;2.47;1.40;;;;;;;18.15;52.12;102664.63;6247494;23;20071;-79
2021/03/18 09:34:40;;;;;;;3.55;1.50;;;;;;;18.29;51.56;102658.78;6271307;23;20007;-78
2021/03/18 09:37:06;;;;;;;2.25;1.42;;;;;;;18.37;51.40;102663.25;6248771;23;20000;-79
2021/03/18 09:39:34;;;;;;;2.97;1.52;;;;;;;18.37;51.34;102663.25;6247406;23;20043;-79
2021/03/18 09:42:15;;;;;;;2.45;1.40;;;;;;;18.36;51.63;102653.69;6274080;23;20043;-79
2021/03/18 09:44:44;;;;;;;2.10;1.40;;;;;;;18.34;51.59;102650.16;6269043;22;20005;-80
2021/03/18 09:47:11;;;;;;;2.65;1.33;;;;;;;18.35;51.71;102647.56;6273713;23;19985;-79
2021/03/18 09:50:01;;;;;;;2.33;1.30;;;;;;;18.40;51.42;102653.75;6269201;23;20015;-78
2021/03/18 09:55:02;;;;;;;1.70;1.20;;;;;;;18.41;51.77;102642.47;6272752;23;20026;-82
2021/03/18 10:03:07;;;;;;;4.22;1.27;;;;;;;18.54;51.25;102647.88;6268822;22;20024;-80
2021/03/18 10:05:41;;;;;;;2.72;1.30;;;;;;;18.57;51.41;102642.69;6215771;23;20046;-80
2021/03/18 10:08:14;;;;;;;3.05;1.20;;;;;;;18.59;51.39;102643.59;6216762;23;20012;-79
2021/03/18 10:10:39;;;;;;;2.35;1.20;;;;;;;18.59;51.45;102633.16;6267299;23;20004;-78
2021/03/18 10:13:07;;;;;;;2.22;1.15;;;;;;;18.62;51.46;102644.53;6239731;23;20028;-78
2021/03/18 10:15:35;;;;;;;1.75;1.10;;;;;;;18.55;51.62;102629.63;6266451;23;20019;-80
2021/03/18 10:18:08;;;;;;;2.72;1.50;;;;;;;18.53;51.49;102623.53;6266964;23;20052;-80
2021/03/18 10:20:35;;;;;;;1.92;1.13;;;;;;;18.54;51.51;102625.28;6240689;23;20010;-81
2021/03/18 10:23:25;;;;;;;1.33;0.88;;;;;;;18.52;51.60;102631.34;6241456;23;20079;-78
2021/03/18 10:25:50;;;;;;;2.03;1.10;;;;;;;18.50;51.83;102616.53;6242085;23;20012;-80
2021/03/18 10:28:18;;;;;;;2.78;1.20;;;;;;;18.51;51.74;102607.00;6219243;23;20064;-78
2021/03/18 10:30:46;;;;;;;2.28;1.10;;;;;;;18.48;51.78;102605.19;6243203;23;20008;-79
2021/03/18 10:33:33;;;;;;;1.88;1.05;;;;;;;18.44;51.82;102607.72;6269704;23;20066;-78
2021/03/18 10:36:02;;;;;;;3.22;1.25;;;;;;;18.38;52.02;102605.94;6268965;23;20038;-80
2021/03/18 10:38:32;;;;;;;1.55;1.02;;;;;;;18.37;52.29;102616.31;6256279;22;20039;-80
2021/03/18 10:41:12;;;;;;;1.67;0.95;;;;;;;18.36;52.10;102612.84;6237739;23;20011;-80
2021/03/18 10:43:41;;;;;;;1.73;0.90;;;;;;;18.35;52.13;102616.28;6236301;23;20005;-80
2021/03/18 10:46:13;;;;;;;2.85;1.13;;;;;;;18.37;52.27;102614.59;6236695;23;20008;-81
2021/03/18 10:48:39;;;;;;;2.42;0.82;;;;;;;18.44;51.98;102621.66;6213169;23;20015;-80
2021/03/18 10:51:09;;;;;;;1.90;1.00;;;;;;;18.49;51.77;102619.13;6210435;23;20051;-80
2021/03/18 10:53:40;;;;;;;1.25;0.82;;;;;;;18.54;51.87;102621.81;6238576;23;20171;-80
2021/03/18 10:56:09;;;;;;;3.42;1.30;;;;;;;18.52;51.77;102613.94;6236984;23;20009;-80
2021/03/18 10:58:35;;;;;;;1.52;0.90;;;;;;;18.50;51.90;102618.25;6247305;22;20020;-79
2021/03/18 11:01:23;;;;;;;3.45;1.20;;;;;;;18.49;51.88;102614.78;6237440;23;20013;-80
2021/03/18 11:04:07;;;;;;;1.77;0.90;;;;;;;18.43;52.05;102609.47;6237397;23;20012;-81
2021/03/18 11:06:46;;;;;;;1.40;1.00;;;;;;;18.41;52.16;102610.31;6240305;23;20004;-81
2021/03/18 11:09:12;;;;;;;1.23;0.90;;;;;;;18.46;51.95;102614.72;6239619;23;20043;-81
2021/03/18 11:11:38;;;;;;;1.80;1.10;;;;;;;18.54;52.07;102606.16;6239432;23;20420;-80
2021/03/18 11:14:14;;;;;;;2.00;0.98;;;;;;;18.62;51.83;102612.38;6189507;23;19988;-81
2021/03/18 11:16:42;;;;;;;1.73;1.10;;;;;;;18.67;51.88;102608.09;6240210;23;20004;-80
2021/03/18 11:19:11;;;;;;;1.23;0.90;;;;;;;18.68;51.94;102610.72;6212913;23;20012;-83
2021/03/18 11:21:47;;;;;;;3.05;1.25;;;;;;;18.66;52.02;102607.22;6239533;23;20100;-80
2021/03/18 11:24:16;;;;;;;3.85;1.10;;;;;;;18.64;52.77;102608.03;6235650;23;20017;-83
2021/03/18 11:27:00;;;;;;;1.90;1.10;;;;;;;18.57;52.35;102599.22;6238640;23;20004;-81
2021/03/18 11:29:31;;;;;;;1.52;1.15;;;;;;;18.55;52.73;102603.56;6213149;23;20026;-80
2021/03/18 11:32:00;;;;;;;2.15;1.10;;;;;;;18.55;52.81;102608.75;6230057;23;20652;-80
2021/03/18 11:34:28;;;;;;;1.80;1.00;;;;;;;18.48;52.85;102596.50;6237153;23;20004;-80
2021/03/18 11:36:59;;;;;;;1.70;1.08;;;;;;;18.44;52.91;102599.91;6236441;23;20039;-80
2021/03/18 11:39:26;;;;;;;1.77;1.02;;;;;;;18.43;52.98;102604.25;6234921;23;20024;-80
2021/03/18 11:42:04;;;;;;;2.47;1.27;;;;;;;18.44;53.14;102603.44;6237045;23;20027;-79
2021/03/18 11:44:31;;;;;;;1.90;1.10;;;;;;;18.43;52.75;102604.25;6236583;23;20001;-80
2021/03/18 11:47:01;;;;;;;2.25;1.13;;;;;;;18.41;52.85;102605.09;6239353;23;20040;-80
2021/03/18 11:49:27;;;;;;;2.50;1.30;;;;;;;18.43;53.07;102606.88;6239938;23;20004;-80
2021/03/18 11:51:52;;;;;;;1.52;1.00;;;;;;;18.39;53.25;102598.97;6253457;22;20020;-80
2021/03/18 11:54:18;;;;;;;2.25;1.15;;;;;;;18.39;53.21;102599.84;6239594;23;20003;-80
2021/03/18 11:56:44;;;;;;;5.30;1.15;;;;;;;18.36;53.19;102599.81;6241150;23;20304;-80
2021/03/18 11:59:12;;;;;;;3.60;0.95;;;;;;;18.41;53.12;102600.75;6266614;23;20015;-80
2021/03/18 12:01:40;;;;;;;1.73;1.00;;;;;;;18.44;52.91;102600.81;6238517;23;20010;-80
2021/03/18 12:04:17;;;;;;;1.63;1.00;;;;;;;18.48;52.72;102589.56;6237479;23;20007;-81
2021/03/18 12:06:42;;;;;;;1.70;0.95;;;;;;;18.50;52.68;102589.59;6280072;22;20031;-80